sensor_id;sensor_type;location;lat;lon;timestamp;temperature;humidity
4739;DHT22;2383;48.632;10.156;2022-09-03T00:02:46;20.80;94.20
4739;DHT22;2383;48.632;10.156;2022-09-03T00:06:59;20.80;94.50
4739;DHT22;2383;48.632;10.156;2022-09-03T00:11:19;20.50;94.50
4739;DHT22;2383;48.632;10.156;2022-09-03T00:15:23;20.50;94.30
4739;DHT22;2383;48.632;10.156;2022-09-03T00:19:33;20.70;94.40
4739;DHT22;2383;48.632;10.156;2022-09-03T00:23:41;20.70;94.00
4739;DHT22;2383;48.632;10.156;2022-09-03T00:27:46;20.80;93.80
4739;DHT22;2383;48.632;10.156;2022-09-03T00:31:55;20.90;94.00
4739;DHT22;2383;48.632;10.156;2022-09-03T00:40:04;21.10;93.60
4739;DHT22;2383;48.632;10.156;2022-09-03T00:49:23;20.80;93.80
4739;DHT22;2383;48.632;10.156;2022-09-03T00:53:28;20.80;93.60
4739;DHT22;2383;48.632;10.156;2022-09-03T00:58:03;20.40;93.30
4739;DHT22;2383;48.632;10.156;2022-09-03T01:06:29;20.60;93.50
4739;DHT22;2383;48.632;10.156;2022-09-03T01:10:55;20.90;93.70
4739;DHT22;2383;48.632;10.156;2022-09-03T01:32:40;20.60;92.40
4739;DHT22;2383;48.632;10.156;2022-09-03T01:49:48;20.80;92.00
4739;DHT22;2383;48.632;10.156;2022-09-03T02:02:35;20.60;92.00
4739;DHT22;2383;48.632;10.156;2022-09-03T02:06:37;20.40;91.90
4739;DHT22;2383;48.632;10.156;2022-09-03T02:10:44;19.80;92.50
4739;DHT22;2383;48.632;10.156;2022-09-03T02:14:47;20.00;92.50
4739;DHT22;2383;48.632;10.156;2022-09-03T02:18:51;19.40;93.20
4739;DHT22;2383;48.632;10.156;2022-09-03T02:22:56;19.30;93.30
4739;DHT22;2383;48.632;10.156;2022-09-03T02:26:58;19.50;93.10
4739;DHT22;2383;48.632;10.156;2022-09-03T02:31:00;19.80;93.30
4739;DHT22;2383;48.632;10.156;2022-09-03T02:35:02;19.80;93.20
4739;DHT22;2383;48.632;10.156;2022-09-03T02:39:05;19.80;93.00
4739;DHT22;2383;48.632;10.156;2022-09-03T02:43:17;19.80;93.00
4739;DHT22;2383;48.632;10.156;2022-09-03T02:47:28;19.70;93.20
4739;DHT22;2383;48.632;10.156;2022-09-03T02:51:38;19.40;93.60
4739;DHT22;2383;48.632;10.156;2022-09-03T02:55:42;19.60;93.70
4739;DHT22;2383;48.632;10.156;2022-09-03T02:59:43;19.60;94.10
4739;DHT22;2383;48.632;10.156;2022-09-03T03:03:46;19.70;94.00
4739;DHT22;2383;48.632;10.156;2022-09-03T03:07:48;19.80;93.60
4739;DHT22;2383;48.632;10.156;2022-09-03T03:11:50;19.80;93.70
4739;DHT22;2383;48.632;10.156;2022-09-03T03:16:01;19.40;94.20
4739;DHT22;2383;48.632;10.156;2022-09-03T03:20:03;19.50;94.20
4739;DHT22;2383;48.632;10.156;2022-09-03T03:24:05;19.60;94.20
4739;DHT22;2383;48.632;10.156;2022-09-03T03:28:08;19.60;94.20
4739;DHT22;2383;48.632;10.156;2022-09-03T03:32:10;19.70;94.30
4739;DHT22;2383;48.632;10.156;2022-09-03T03:36:13;20.00;94.10
4739;DHT22;2383;48.632;10.156;2022-09-03T03:40:16;19.60;94.30
4739;DHT22;2383;48.632;10.156;2022-09-03T03:44:17;19.90;94.10
4739;DHT22;2383;48.632;10.156;2022-09-03T03:48:20;19.80;94.50
4739;DHT22;2383;48.632;10.156;2022-09-03T03:52:23;19.70;94.60
4739;DHT22;2383;48.632;10.156;2022-09-03T03:56:25;19.90;94.10
4739;DHT22;2383;48.632;10.156;2022-09-03T04:00:27;19.90;94.60
4739;DHT22;2383;48.632;10.156;2022-09-03T04:04:29;19.50;94.60
4739;DHT22;2383;48.632;10.156;2022-09-03T04:08:34;19.50;94.40
4739;DHT22;2383;48.632;10.156;2022-09-03T04:12:37;19.50;94.40
4739;DHT22;2383;48.632;10.156;2022-09-03T04:16:38;19.90;94.30
4739;DHT22;2383;48.632;10.156;2022-09-03T04:20:41;20.00;94.50
4739;DHT22;2383;48.632;10.156;2022-09-03T04:24:43;20.10;93.90
4739;DHT22;2383;48.632;10.156;2022-09-03T04:28:45;20.20;93.90
4739;DHT22;2383;48.632;10.156;2022-09-03T04:32:51;19.90;94.20
4739;DHT22;2383;48.632;10.156;2022-09-03T04:36:56;20.00;94.30
4739;DHT22;2383;48.632;10.156;2022-09-03T04:41:01;19.00;95.30
4739;DHT22;2383;48.632;10.156;2022-09-03T04:45:03;19.20;95.30
4739;DHT22;2383;48.632;10.156;2022-09-03T04:49:05;19.30;95.40
4739;DHT22;2383;48.632;10.156;2022-09-03T04:53:09;19.00;95.50
4739;DHT22;2383;48.632;10.156;2022-09-03T04:57:11;19.40;95.70
4739;DHT22;2383;48.632;10.156;2022-09-03T05:01:24;19.50;95.20
4739;DHT22;2383;48.632;10.156;2022-09-03T05:05:27;19.20;95.80
4739;DHT22;2383;48.632;10.156;2022-09-03T05:09:29;19.10;95.80
4739;DHT22;2383;48.632;10.156;2022-09-03T05:13:32;19.40;95.10
4739;DHT22;2383;48.632;10.156;2022-09-03T05:17:34;19.70;95.00
4739;DHT22;2383;48.632;10.156;2022-09-03T05:21:38;19.80;94.70
4739;DHT22;2383;48.632;10.156;2022-09-03T05:25:40;19.80;94.80
4739;DHT22;2383;48.632;10.156;2022-09-03T05:29:42;20.00;94.60
4739;DHT22;2383;48.632;10.156;2022-09-03T05:33:46;20.00;94.40
4739;DHT22;2383;48.632;10.156;2022-09-03T05:37:48;20.20;93.90
4739;DHT22;2383;48.632;10.156;2022-09-03T05:41:52;20.50;94.20
4739;DHT22;2383;48.632;10.156;2022-09-03T05:45:58;20.50;93.80
4739;DHT22;2383;48.632;10.156;2022-09-03T05:50:01;20.40;93.90
4739;DHT22;2383;48.632;10.156;2022-09-03T05:54:03;20.50;94.10
4739;DHT22;2383;48.632;10.156;2022-09-03T05:58:05;20.70;94.30
4739;DHT22;2383;48.632;10.156;2022-09-03T06:02:07;20.90;94.10
4739;DHT22;2383;48.632;10.156;2022-09-03T06:06:13;20.50;94.10
4739;DHT22;2383;48.632;10.156;2022-09-03T06:10:15;20.40;94.20
4739;DHT22;2383;48.632;10.156;2022-09-03T06:14:20;20.30;94.10
4739;DHT22;2383;48.632;10.156;2022-09-03T06:18:24;20.30;94.20
4739;DHT22;2383;48.632;10.156;2022-09-03T06:22:26;20.70;93.60
4739;DHT22;2383;48.632;10.156;2022-09-03T06:26:30;20.90;93.40
4739;DHT22;2383;48.632;10.156;2022-09-03T06:30:32;21.20;92.90
4739;DHT22;2383;48.632;10.156;2022-09-03T06:34:34;21.00;93.10
4739;DHT22;2383;48.632;10.156;2022-09-03T06:38:36;20.40;94.80
4739;DHT22;2383;48.632;10.156;2022-09-03T06:42:39;20.30;96.50
4739;DHT22;2383;48.632;10.156;2022-09-03T06:46:46;20.40;97.20
4739;DHT22;2383;48.632;10.156;2022-09-03T06:50:53;20.90;97.20
4739;DHT22;2383;48.632;10.156;2022-09-03T06:54:55;20.90;96.90
4739;DHT22;2383;48.632;10.156;2022-09-03T06:58:58;20.70;96.40
4739;DHT22;2383;48.632;10.156;2022-09-03T07:03:00;20.30;96.70
4739;DHT22;2383;48.632;10.156;2022-09-03T07:07:03;20.60;97.60
4739;DHT22;2383;48.632;10.156;2022-09-03T07:11:07;21.00;97.40
4739;DHT22;2383;48.632;10.156;2022-09-03T07:15:10;21.10;97.30
4739;DHT22;2383;48.632;10.156;2022-09-03T07:19:13;21.40;97.00
4739;DHT22;2383;48.632;10.156;2022-09-03T07:23:15;21.10;97.00
4739;DHT22;2383;48.632;10.156;2022-09-03T07:27:17;21.50;96.50
4739;DHT22;2383;48.632;10.156;2022-09-03T07:31:28;21.70;96.60
4739;DHT22;2383;48.632;10.156;2022-09-03T07:35:30;21.90;96.20
4739;DHT22;2383;48.632;10.156;2022-09-03T07:39:33;22.00;96.10
4739;DHT22;2383;48.632;10.156;2022-09-03T07:43:40;21.70;96.00
4739;DHT22;2383;48.632;10.156;2022-09-03T07:47:47;21.30;97.10
4739;DHT22;2383;48.632;10.156;2022-09-03T07:51:50;21.30;96.50
4739;DHT22;2383;48.632;10.156;2022-09-03T07:56:13;21.40;96.80
4739;DHT22;2383;48.632;10.156;2022-09-03T08:00:16;21.40;96.70
4739;DHT22;2383;48.632;10.156;2022-09-03T08:04:18;21.30;96.60
4739;DHT22;2383;48.632;10.156;2022-09-03T08:08:22;21.60;97.40
4739;DHT22;2383;48.632;10.156;2022-09-03T08:12:24;21.90;96.10
4739;DHT22;2383;48.632;10.156;2022-09-03T08:16:30;21.20;96.70
4739;DHT22;2383;48.632;10.156;2022-09-03T08:20:32;21.80;97.10
4739;DHT22;2383;48.632;10.156;2022-09-03T08:24:34;22.10;96.60
4739;DHT22;2383;48.632;10.156;2022-09-03T08:28:36;21.80;96.30
4739;DHT22;2383;48.632;10.156;2022-09-03T08:32:38;22.30;97.10
4739;DHT22;2383;48.632;10.156;2022-09-03T08:36:40;22.70;97.00
4739;DHT22;2383;48.632;10.156;2022-09-03T08:40:42;22.60;96.00
4739;DHT22;2383;48.632;10.156;2022-09-03T08:44:56;22.50;96.50
4739;DHT22;2383;48.632;10.156;2022-09-03T08:48:59;21.90;99.00
4739;DHT22;2383;48.632;10.156;2022-09-03T08:53:14;22.40;97.60
4739;DHT22;2383;48.632;10.156;2022-09-03T08:57:18;22.80;98.00
4739;DHT22;2383;48.632;10.156;2022-09-03T09:05:46;22.80;97.70
4739;DHT22;2383;48.632;10.156;2022-09-03T09:14:19;23.50;97.30
4739;DHT22;2383;48.632;10.156;2022-09-03T09:18:36;23.70;96.80
4739;DHT22;2383;48.632;10.156;2022-09-03T09:23:05;23.90;97.20
4739;DHT22;2383;48.632;10.156;2022-09-03T09:27:15;24.00;98.10
4739;DHT22;2383;48.632;10.156;2022-09-03T09:31:17;23.80;98.40
4739;DHT22;2383;48.632;10.156;2022-09-03T09:35:21;24.00;97.40
4739;DHT22;2383;48.632;10.156;2022-09-03T09:39:23;23.90;97.50
4739;DHT22;2383;48.632;10.156;2022-09-03T09:43:25;24.40;97.00
4739;DHT22;2383;48.632;10.156;2022-09-03T09:47:34;24.40;96.20
4739;DHT22;2383;48.632;10.156;2022-09-03T09:51:38;24.60;95.60
4739;DHT22;2383;48.632;10.156;2022-09-03T09:56:07;24.60;95.60
4739;DHT22;2383;48.632;10.156;2022-09-03T10:00:13;24.80;95.50
4739;DHT22;2383;48.632;10.156;2022-09-03T10:04:27;24.80;95.60
4739;DHT22;2383;48.632;10.156;2022-09-03T10:08:33;25.00;95.50
4739;DHT22;2383;48.632;10.156;2022-09-03T10:13:57;25.00;95.80
4739;DHT22;2383;48.632;10.156;2022-09-03T10:22:26;24.20;96.50
4739;DHT22;2383;48.632;10.156;2022-09-03T10:26:13;24.20;96.10
4739;DHT22;2383;48.632;10.156;2022-09-03T10:30:17;24.40;96.90
4739;DHT22;2383;48.632;10.156;2022-09-03T10:34:53;24.70;96.70
4739;DHT22;2383;48.632;10.156;2022-09-03T10:39:22;24.20;97.40
4739;DHT22;2383;48.632;10.156;2022-09-03T10:52:04;24.30;97.90
4739;DHT22;2383;48.632;10.156;2022-09-03T10:56:31;24.80;97.00
4739;DHT22;2383;48.632;10.156;2022-09-03T11:00:38;25.10;96.80
4739;DHT22;2383;48.632;10.156;2022-09-03T11:09:25;24.90;97.10
4739;DHT22;2383;48.632;10.156;2022-09-03T11:18:17;25.10;96.90
4739;DHT22;2383;48.632;10.156;2022-09-03T11:22:21;25.30;96.90
4739;DHT22;2383;48.632;10.156;2022-09-03T11:26:24;25.50;96.60
4739;DHT22;2383;48.632;10.156;2022-09-03T11:34:49;25.50;96.50
4739;DHT22;2383;48.632;10.156;2022-09-03T11:38:52;25.40;96.50
4739;DHT22;2383;48.632;10.156;2022-09-03T11:43:25;24.70;97.20
4739;DHT22;2383;48.632;10.156;2022-09-03T11:47:42;25.30;96.80
4739;DHT22;2383;48.632;10.156;2022-09-03T11:51:57;25.90;95.90
4739;DHT22;2383;48.632;10.156;2022-09-03T12:00:21;26.20;94.40
4739;DHT22;2383;48.632;10.156;2022-09-03T12:17:56;26.40;94.10
4739;DHT22;2383;48.632;10.156;2022-09-03T12:22:20;26.40;94.50
4739;DHT22;2383;48.632;10.156;2022-09-03T12:26:24;26.10;94.90
4739;DHT22;2383;48.632;10.156;2022-09-03T12:30:26;25.90;95.40
4739;DHT22;2383;48.632;10.156;2022-09-03T12:34:31;25.70;95.50
4739;DHT22;2383;48.632;10.156;2022-09-03T12:38:32;25.80;95.70
4739;DHT22;2383;48.632;10.156;2022-09-03T12:43:14;25.60;95.90
4739;DHT22;2383;48.632;10.156;2022-09-03T12:47:40;25.40;96.70
4739;DHT22;2383;48.632;10.156;2022-09-03T12:51:42;25.40;96.70
4739;DHT22;2383;48.632;10.156;2022-09-03T12:55:55;25.60;96.20
4739;DHT22;2383;48.632;10.156;2022-09-03T13:00:06;22.90;94.80
4739;DHT22;2383;48.632;10.156;2022-09-03T13:04:11;22.10;97.80
4739;DHT22;2383;48.632;10.156;2022-09-03T13:08:31;21.20;98.80
4739;DHT22;2383;48.632;10.156;2022-09-03T13:12:42;21.10;99.90
4739;DHT22;2383;48.632;10.156;2022-09-03T13:16:46;21.50;99.90
4739;DHT22;2383;48.632;10.156;2022-09-03T13:33:46;20.20;99.90
4739;DHT22;2383;48.632;10.156;2022-09-03T13:42:19;20.00;99.90
4739;DHT22;2383;48.632;10.156;2022-09-03T13:46:38;20.20;99.90
4739;DHT22;2383;48.632;10.156;2022-09-03T13:50:50;21.40;99.90
4739;DHT22;2383;48.632;10.156;2022-09-03T14:04:00;22.00;99.90
4739;DHT22;2383;48.632;10.156;2022-09-03T14:12:49;22.60;99.90
4739;DHT22;2383;48.632;10.156;2022-09-03T14:25:21;22.70;99.90
4739;DHT22;2383;48.632;10.156;2022-09-03T14:29:29;21.90;99.90
4739;DHT22;2383;48.632;10.156;2022-09-03T14:33:38;22.20;99.90
4739;DHT22;2383;48.632;10.156;2022-09-03T15:07:40;23.20;99.90
4739;DHT22;2383;48.632;10.156;2022-09-03T15:11:55;23.70;99.90
4739;DHT22;2383;48.632;10.156;2022-09-03T15:24:51;23.70;99.90
4739;DHT22;2383;48.632;10.156;2022-09-03T15:29:09;24.00;99.90
4739;DHT22;2383;48.632;10.156;2022-09-03T15:33:27;24.10;99.90
4739;DHT22;2383;48.632;10.156;2022-09-03T15:42:04;24.20;99.90
4739;DHT22;2383;48.632;10.156;2022-09-03T15:46:29;24.30;99.90
4739;DHT22;2383;48.632;10.156;2022-09-03T15:50:49;24.30;99.90
4739;DHT22;2383;48.632;10.156;2022-09-03T15:55:11;24.00;99.90
4739;DHT22;2383;48.632;10.156;2022-09-03T15:59:22;23.50;99.90
4739;DHT22;2383;48.632;10.156;2022-09-03T16:03:43;23.80;99.90
4739;DHT22;2383;48.632;10.156;2022-09-03T16:16:33;24.00;99.90
4739;DHT22;2383;48.632;10.156;2022-09-03T16:20:57;24.10;99.90
4739;DHT22;2383;48.632;10.156;2022-09-03T16:25:11;23.80;99.90
4739;DHT22;2383;48.632;10.156;2022-09-03T16:29:17;23.70;99.90
4739;DHT22;2383;48.632;10.156;2022-09-03T16:55:15;24.00;99.80
4739;DHT22;2383;48.632;10.156;2022-09-03T17:12:38;24.10;99.90
4739;DHT22;2383;48.632;10.156;2022-09-03T17:16:49;24.30;99.90
4739;DHT22;2383;48.632;10.156;2022-09-03T17:21:17;24.40;99.90
4739;DHT22;2383;48.632;10.156;2022-09-03T17:25:39;23.90;99.90
4739;DHT22;2383;48.632;10.156;2022-09-03T17:47:06;23.40;99.90
4739;DHT22;2383;48.632;10.156;2022-09-03T17:56:08;23.10;99.90
4739;DHT22;2383;48.632;10.156;2022-09-03T18:00:26;23.00;99.90
4739;DHT22;2383;48.632;10.156;2022-09-03T18:08:58;23.30;99.90
4739;DHT22;2383;48.632;10.156;2022-09-03T18:17:24;23.30;99.90
4739;DHT22;2383;48.632;10.156;2022-09-03T18:21:28;23.30;99.90
4739;DHT22;2383;48.632;10.156;2022-09-03T18:26:00;23.50;99.90
4739;DHT22;2383;48.632;10.156;2022-09-03T18:30:23;23.60;99.90
4739;DHT22;2383;48.632;10.156;2022-09-03T18:34:47;23.50;99.90
4739;DHT22;2383;48.632;10.156;2022-09-03T18:39:23;23.50;99.90
4739;DHT22;2383;48.632;10.156;2022-09-03T18:49:00;23.50;99.90
4739;DHT22;2383;48.632;10.156;2022-09-03T18:58:03;22.40;99.90
4739;DHT22;2383;48.632;10.156;2022-09-03T19:07:39;22.40;99.90
4739;DHT22;2383;48.632;10.156;2022-09-03T19:12:26;22.60;99.90
4739;DHT22;2383;48.632;10.156;2022-09-03T19:17:15;22.60;99.90
4739;DHT22;2383;48.632;10.156;2022-09-03T19:21:51;22.20;99.90
4739;DHT22;2383;48.632;10.156;2022-09-03T19:26:43;22.10;99.90
4739;DHT22;2383;48.632;10.156;2022-09-03T19:36:10;22.00;99.90
4739;DHT22;2383;48.632;10.156;2022-09-03T19:41:14;21.90;99.90
4739;DHT22;2383;48.632;10.156;2022-09-03T19:50:43;22.10;99.90
4739;DHT22;2383;48.632;10.156;2022-09-03T19:55:11;22.20;99.90
4739;DHT22;2383;48.632;10.156;2022-09-03T19:59:38;22.10;99.90
4739;DHT22;2383;48.632;10.156;2022-09-03T20:04:05;22.20;99.90
4739;DHT22;2383;48.632;10.156;2022-09-03T20:08:30;21.90;99.90
4739;DHT22;2383;48.632;10.156;2022-09-03T20:17:31;21.70;99.90
4739;DHT22;2383;48.632;10.156;2022-09-03T20:21:52;21.90;99.90
4739;DHT22;2383;48.632;10.156;2022-09-03T20:26:16;21.20;99.90
4739;DHT22;2383;48.632;10.156;2022-09-03T20:39:14;21.50;99.90
4739;DHT22;2383;48.632;10.156;2022-09-03T20:56:39;21.80;99.90
4739;DHT22;2383;48.632;10.156;2022-09-03T21:01:00;21.90;99.90
4739;DHT22;2383;48.632;10.156;2022-09-03T21:27:20;21.00;99.90
4739;DHT22;2383;48.632;10.156;2022-09-03T21:31:30;21.20;99.90
4739;DHT22;2383;48.632;10.156;2022-09-03T21:36:14;21.40;99.90
4739;DHT22;2383;48.632;10.156;2022-09-03T21:40:19;21.00;99.90
4739;DHT22;2383;48.632;10.156;2022-09-03T21:48:50;20.40;99.90
4739;DHT22;2383;48.632;10.156;2022-09-03T21:53:05;20.30;99.90
4739;DHT22;2383;48.632;10.156;2022-09-03T21:57:37;20.50;99.90
4739;DHT22;2383;48.632;10.156;2022-09-03T22:06:16;20.60;99.90
4739;DHT22;2383;48.632;10.156;2022-09-03T22:10:47;20.40;99.90
4739;DHT22;2383;48.632;10.156;2022-09-03T22:14:52;20.90;99.90
4739;DHT22;2383;48.632;10.156;2022-09-03T22:18:56;21.10;99.90
4739;DHT22;2383;48.632;10.156;2022-09-03T22:23:05;21.00;99.90
4739;DHT22;2383;48.632;10.156;2022-09-03T22:36:13;20.50;99.90
4739;DHT22;2383;48.632;10.156;2022-09-03T22:44:44;20.60;99.90
4739;DHT22;2383;48.632;10.156;2022-09-03T22:57:09;20.20;99.90
4739;DHT22;2383;48.632;10.156;2022-09-03T23:01:21;20.40;99.90
4739;DHT22;2383;48.632;10.156;2022-09-03T23:05:43;20.40;99.90
4739;DHT22;2383;48.632;10.156;2022-09-03T23:09:52;20.30;99.90
4739;DHT22;2383;48.632;10.156;2022-09-03T23:14:04;20.30;99.90
4739;DHT22;2383;48.632;10.156;2022-09-03T23:26:45;20.10;99.90
4739;DHT22;2383;48.632;10.156;2022-09-03T23:30:48;20.50;99.90
4739;DHT22;2383;48.632;10.156;2022-09-03T23:34:50;19.90;99.90
4739;DHT22;2383;48.632;10.156;2022-09-03T23:56:51;20.10;99.90
